Time;durP1;ratioP1;P1;durP2;ratioP2;P2;SDS_P1;SDS_P2;PMS_P1;PMS_P2;Temp;Humidity;BMP_temperature;BMP_pressure;BME280_temperature;BME280_humidity;BME280_pressure;Samples;Min_cycle;Max_cycle;Signal;HPM_P1;HPM_P2
2024/02/23 00:03:23;;;;;;;1.05;0.20;;;;;;;11.03;100.00;95573.16;15280922;19;20046;-48
2024/02/23 00:08:47;;;;;;;0.80;0.10;;;;;;;10.95;100.00;95590.47;15283522;19;20412;-52
2024/02/23 00:14:15;;;;;;;2.03;0.20;;;;;;;10.83;100.00;95573.47;15286503;19;20340;-51
2024/02/23 00:19:40;;;;;;;0.38;0.15;;;;;;;10.72;100.00;95581.31;15284005;19;20050;-51
2024/02/23 00:25:05;;;;;;;0.40;0.20;;;;;;;10.65;100.00;95612.88;15279992;19;20077;-49
2024/02/23 00:30:33;;;;;;;0.10;0.10;;;;;;;10.63;100.00;95620.41;15013812;19;5002200;-48
2024/02/23 00:35:58;;;;;;;0.80;0.20;;;;;;;10.55;100.00;95626.09;15273784;19;20014;-51
2024/02/23 00:41:22;;;;;;;0.70;0.10;;;;;;;10.52;100.00;95623.88;15277576;19;20418;-49
2024/02/23 00:46:49;;;;;;;0.30;0.10;;;;;;;10.45;100.00;95627.47;15285028;19;20042;-48
2024/02/23 00:52:15;;;;;;;1.38;0.20;;;;;;;10.43;100.00;95629.56;15272733;19;20022;-51
2024/02/23 00:57:41;;;;;;;1.10;0.20;;;;;;;10.39;100.00;95658.00;15281537;19;20070;-49
2024/02/23 01:03:08;;;;;;;1.10;0.17;;;;;;;10.26;100.00;95685.06;15270720;19;20028;-49
2024/02/23 01:08:34;;;;;;;0.20;0.20;;;;;;;10.23;100.00;95739.31;15269268;19;20082;-48
2024/02/23 01:13:58;;;;;;;1.45;0.30;;;;;;;10.09;100.00;95755.59;15279975;19;20482;-49
2024/02/23 01:19:25;;;;;;;1.95;0.20;;;;;;;9.87;100.00;95769.50;15273810;19;20029;-51
2024/02/23 01:24:50;;;;;;;0.80;0.20;;;;;;;9.80;100.00;95803.69;15272565;19;20018;-49
2024/02/23 01:30:15;;;;;;;1.23;0.20;;;;;;;9.74;100.00;95817.19;15276907;19;20745;-49
2024/02/23 01:35:42;;;;;;;0.28;0.20;;;;;;;9.59;100.00;95812.13;15288969;19;20411;-48
2024/02/23 01:41:07;;;;;;;0.20;0.10;;;;;;;9.45;100.00;95825.69;15288014;19;20021;-49
2024/02/23 01:46:31;;;;;;;0.30;0.10;;;;;;;9.25;100.00;95848.13;15292872;19;20539;-50
2024/02/23 01:51:59;;;;;;;0.52;0.10;;;;;;;9.07;100.00;95835.44;15280149;19;20429;-50
2024/02/23 01:57:24;;;;;;;0.55;0.10;;;;;;;8.91;100.00;95847.50;15286140;19;20021;-53
2024/02/23 02:03:07;;;;;;;0.40;0.20;;;;;;;8.74;100.00;95898.16;15288950;19;20236;-48
2024/02/23 02:08:35;;;;;;;0.20;0.10;;;;;;;8.64;100.00;95905.84;15292142;19;20045;-48
2024/02/23 02:14:00;;;;;;;0.82;0.20;;;;;;;8.50;100.00;95907.75;15293828;19;20389;-48
2024/02/23 02:19:24;;;;;;;1.92;0.30;;;;;;;8.39;100.00;95911.84;15291518;19;20348;-48
2024/02/23 02:24:51;;;;;;;1.20;0.40;;;;;;;8.29;100.00;95919.50;15291560;19;20018;-49
2024/02/23 02:30:23;;;;;;;0.57;0.20;;;;;;;8.17;100.00;95924.69;15289287;19;20418;-48
2024/02/23 02:35:49;;;;;;;0.93;0.20;;;;;;;8.00;100.00;95938.50;15287218;19;20089;-48
2024/02/23 02:41:17;;;;;;;1.67;0.20;;;;;;;7.95;100.00;95959.75;15275218;19;20011;-47
2024/02/23 02:46:43;;;;;;;0.40;0.30;;;;;;;7.86;100.00;95953.78;15279344;19;20018;-47
2024/02/23 02:52:08;;;;;;;0.52;0.30;;;;;;;7.72;100.00;95969.00;15288211;19;20058;-49
2024/02/23 02:57:37;;;;;;;1.48;0.40;;;;;;;7.65;100.00;95970.84;15285394;19;20082;-49
2024/02/23 03:03:02;;;;;;;0.73;0.35;;;;;;;7.56;100.00;95994.31;15286355;19;20029;-47
2024/02/23 03:08:27;;;;;;;0.45;0.32;;;;;;;7.47;100.00;95994.69;15291230;19;20097;-50
2024/02/23 03:13:54;;;;;;;1.17;0.30;;;;;;;7.39;100.00;96007.25;15283923;19;20018;-46
2024/02/23 03:19:22;;;;;;;0.38;0.20;;;;;;;7.24;100.00;96028.00;15281517;19;20018;-49
2024/02/23 03:24:46;;;;;;;1.10;0.25;;;;;;;7.25;100.00;96019.78;15289289;19;20082;-48
2024/02/23 03:30:08;;;;;;;0.25;0.20;;;;;;;7.11;100.00;96033.31;15283212;19;20409;-48
2024/02/23 03:35:39;;;;;;;0.52;0.30;;;;;;;6.93;100.00;96048.88;15283028;19;20393;-49
2024/02/23 03:41:10;;;;;;;1.07;0.30;;;;;;;6.78;100.00;96053.50;15282590;19;20501;-47
2024/02/23 03:46:38;;;;;;;0.77;0.30;;;;;;;6.75;100.00;96081.47;15278636;19;20029;-47
2024/02/23 03:52:02;;;;;;;0.90;0.38;;;;;;;6.86;100.00;96092.66;15283915;19;20313;-47
2024/02/23 03:57:27;;;;;;;0.20;0.17;;;;;;;6.91;100.00;96112.47;15279316;19;20025;-46
2024/02/23 04:02:54;;;;;;;0.30;0.20;;;;;;;6.91;100.00;96114.31;15279677;19;20026;-47
2024/02/23 04:08:19;;;;;;;1.15;0.50;;;;;;;6.82;100.00;96115.47;15276061;19;20085;-47
2024/02/23 04:13:44;;;;;;;0.20;0.10;;;;;;;6.72;100.00;96122.00;15275306;19;20483;-47
2024/02/23 04:19:12;;;;;;;0.35;0.30;;;;;;;6.58;100.00;96129.09;15275044;19;20037;-47
2024/02/23 04:24:37;;;;;;;2.97;0.47;;;;;;;6.49;100.00;96124.88;15278811;19;20007;-47
2024/02/23 04:30:02;;;;;;;0.90;0.30;;;;;;;6.47;100.00;96149.16;15285269;19;20561;-48
2024/02/23 04:35:29;;;;;;;1.30;0.38;;;;;;;6.41;100.00;96160.59;15026401;19;5002475;-47
2024/02/23 04:40:54;;;;;;;0.82;0.30;;;;;;;6.40;100.00;96179.53;15284101;19;20018;-46
2024/02/23 04:46:18;;;;;;;2.20;0.30;;;;;;;6.35;100.00;96188.13;15276844;19;20018;-47
2024/02/23 04:51:46;;;;;;;1.60;0.30;;;;;;;6.35;100.00;96203.34;15273084;19;20516;-51
2024/02/23 04:57:10;;;;;;;1.25;0.40;;;;;;;6.28;100.00;96176.53;15280074;19;20098;-46
2024/02/23 05:02:35;;;;;;;0.80;0.32;;;;;;;6.20;100.00;96179.31;15276229;19;20019;-48
2024/02/23 05:08:02;;;;;;;1.20;0.40;;;;;;;6.10;100.00;96182.31;15290879;19;20018;-51
2024/02/23 05:13:27;;;;;;;2.15;0.30;;;;;;;6.04;100.00;96175.88;15296156;19;20019;-51
2024/02/23 05:18:52;;;;;;;1.10;0.30;;;;;;;5.98;100.00;96208.63;15299996;19;20014;-49
2024/02/23 05:24:20;;;;;;;0.70;0.20;;;;;;;5.91;100.00;96221.09;15295261;19;20449;-47
2024/02/23 05:29:44;;;;;;;0.60;0.30;;;;;;;5.83;100.00;96222.84;15041905;19;5001288;-48
2024/02/23 05:35:09;;;;;;;0.77;0.25;;;;;;;5.74;100.00;96218.63;15298309;19;20464;-51
2024/02/23 05:40:36;;;;;;;1.10;0.30;;;;;;;5.73;100.00;96216.97;15294731;19;20021;-46
2024/02/23 05:46:01;;;;;;;0.57;0.20;;;;;;;5.70;100.00;96239.53;15034398;19;5001828;-47
2024/02/23 05:51:25;;;;;;;0.77;0.30;;;;;;;5.65;100.00;96251.78;15287408;19;20042;-47
2024/02/23 05:56:52;;;;;;;0.73;0.22;;;;;;;5.55;100.00;96268.91;15289153;19;20014;-46
2024/02/23 06:02:17;;;;;;;0.60;0.30;;;;;;;5.52;100.00;96263.94;15288205;19;20021;-46
2024/02/23 06:07:42;;;;;;;1.13;0.30;;;;;;;5.45;100.00;96271.03;15295199;19;20014;-46
2024/02/23 06:13:09;;;;;;;0.20;0.20;;;;;;;5.36;100.00;96280.09;15291679;19;20014;-48
2024/02/23 06:18:34;;;;;;;0.30;0.20;;;;;;;5.32;100.00;96300.19;15295902;19;20388;-46
2024/02/23 06:23:58;;;;;;;0.40;0.22;;;;;;;5.29;100.00;96303.22;15294575;19;20018;-47
2024/02/23 06:29:25;;;;;;;1.08;0.25;;;;;;;5.20;100.00;96287.28;15288828;19;20024;-47
2024/02/23 06:34:50;;;;;;;1.05;0.20;;;;;;;5.14;100.00;96308.50;15294429;19;20018;-48
2024/02/23 06:40:18;;;;;;;0.30;0.20;;;;;;;5.08;100.00;96313.53;15287419;19;20498;-49
2024/02/23 06:45:53;;;;;;;0.35;0.20;;;;;;;5.04;100.00;96336.28;15292970;19;20359;-50
2024/02/23 06:51:20;;;;;;;1.13;0.30;;;;;;;5.03;100.00;96341.78;15282167;19;20521;-49
2024/02/23 06:56:45;;;;;;;1.05;0.35;;;;;;;5.08;100.00;96358.09;15287917;19;20684;-47
2024/02/23 07:02:13;;;;;;;1.73;0.35;;;;;;;5.08;100.00;96380.25;15283185;19;20029;-49
2024/02/23 07:07:40;;;;;;;1.25;0.30;;;;;;;5.08;100.00;96352.75;15291611;19;20481;-47
2024/02/23 07:13:05;;;;;;;3.38;0.47;;;;;;;5.08;100.00;96396.28;15282372;19;20042;-49
2024/02/23 07:18:33;;;;;;;1.88;0.20;;;;;;;5.13;100.00;96387.72;15291090;19;20028;-47
2024/02/23 07:23:58;;;;;;;1.85;0.38;;;;;;;5.15;100.00;96400.91;15288781;19;20033;-48
2024/02/23 07:29:22;;;;;;;0.63;0.40;;;;;;;5.15;100.00;96436.44;15285508;19;20410;-49
2024/02/23 07:34:50;;;;;;;1.67;0.38;;;;;;;5.20;100.00;96455.44;15284988;19;20033;-48
2024/02/23 07:40:16;;;;;;;1.00;0.50;;;;;;;5.25;100.00;96447.72;15289042;19;20050;-47
2024/02/23 07:45:42;;;;;;;1.30;0.47;;;;;;;5.32;100.00;96455.03;15282342;19;20406;-48
2024/02/23 07:51:09;;;;;;;1.38;0.50;;;;;;;5.36;100.00;96467.84;15287450;19;20054;-48
2024/02/23 07:56:34;;;;;;;1.73;0.40;;;;;;;5.42;100.00;96479.66;15283070;19;20018;-48
2024/02/23 08:01:58;;;;;;;1.52;0.60;;;;;;;5.47;100.00;96482.63;15280351;19;20029;-48
2024/02/23 08:07:28;;;;;;;0.85;0.52;;;;;;;5.52;100.00;96476.78;15284771;19;20021;-47
2024/02/23 08:12:52;;;;;;;2.78;0.70;;;;;;;5.58;100.00;96467.22;15283311;19;20024;-50
2024/02/23 08:18:17;;;;;;;1.42;0.60;;;;;;;5.66;100.00;96461.81;15286382;19;20020;-47
2024/02/23 08:23:44;;;;;;;1.20;0.60;;;;;;;5.74;100.00;96471.59;15285241;19;20020;-48
2024/02/23 08:29:09;;;;;;;1.95;0.60;;;;;;;5.82;100.00;96472.34;15277483;19;20007;-48
2024/02/23 08:34:33;;;;;;;2.10;0.40;;;;;;;5.88;100.00;96473.47;15283379;19;20025;-48
2024/02/23 08:40:03;;;;;;;1.10;0.57;;;;;;;5.91;100.00;96474.97;15276709;19;20022;-48
2024/02/23 08:45:27;;;;;;;2.28;0.70;;;;;;;5.93;100.00;96483.66;15284691;19;20035;-48
2024/02/23 08:50:52;;;;;;;0.70;0.30;;;;;;;5.96;100.00;96493.94;15293592;19;20018;-51
2024/02/23 08:56:20;;;;;;;2.10;0.40;;;;;;;6.00;100.00;96488.09;15293505;19;20018;-47
2024/02/23 09:01:46;;;;;;;1.48;0.47;;;;;;;6.08;100.00;96465.00;15289013;19;20052;-50
2024/02/23 09:07:10;;;;;;;1.88;0.43;;;;;;;6.10;100.00;96484.38;15294933;19;20347;-49
2024/02/23 09:12:38;;;;;;;3.35;0.50;;;;;;;6.10;100.00;96505.75;15289810;19;20018;-50
2024/02/23 09:18:02;;;;;;;2.72;0.70;;;;;;;6.14;100.00;96494.50;15299896;19;20097;-49
2024/02/23 09:23:27;;;;;;;2.00;0.63;;;;;;;6.23;100.00;96481.06;15290450;19;20022;-51
2024/02/23 09:28:54;;;;;;;1.33;0.40;;;;;;;6.27;100.00;96495.75;15295870;19;20372;-48
2024/02/23 09:34:25;;;;;;;3.22;0.60;;;;;;;6.30;100.00;96488.19;15297778;19;20021;-48
2024/02/23 09:39:50;;;;;;;1.73;0.50;;;;;;;6.31;100.00;96491.66;15290434;19;20756;-48
2024/02/23 09:45:20;;;;;;;1.52;0.40;;;;;;;6.38;100.00;96503.31;15299101;19;20259;-48
2024/02/23 09:50:48;;;;;;;1.30;0.80;;;;;;;6.43;100.00;96495.56;15293780;19;20014;-48
2024/02/23 09:56:17;;;;;;;2.95;0.63;;;;;;;6.44;100.00;96501.75;15288886;19;20085;-47
2024/02/23 10:01:45;;;;;;;2.70;0.82;;;;;;;6.46;100.00;96489.84;15294600;19;20019;-49
2024/02/23 10:07:09;;;;;;;3.78;0.63;;;;;;;6.47;100.00;96488.84;15293804;19;20030;-48
2024/02/23 10:12:36;;;;;;;1.52;0.47;;;;;;;6.51;100.00;96485.81;15281154;19;20526;-48
2024/02/23 10:18:03;;;;;;;2.58;0.52;;;;;;;6.59;100.00;96489.19;15293205;19;20074;-47
2024/02/23 10:23:28;;;;;;;2.45;0.50;;;;;;;6.64;100.00;96502.06;15289526;19;20021;-49
2024/02/23 10:28:55;;;;;;;1.83;0.60;;;;;;;6.66;100.00;96513.38;15292125;19;20642;-47
2024/02/23 10:34:29;;;;;;;1.90;0.60;;;;;;;6.67;100.00;96525.75;15287292;19;20021;-48
2024/02/23 10:40:00;;;;;;;0.95;0.50;;;;;;;6.72;100.00;96534.06;15288323;19;20370;-47
2024/02/23 10:45:25;;;;;;;1.63;0.45;;;;;;;6.72;100.00;96547.44;15287432;19;20356;-50
2024/02/23 10:50:52;;;;;;;3.30;0.70;;;;;;;6.71;100.00;96536.91;15288954;19;20035;-47
2024/02/23 10:56:17;;;;;;;1.95;0.70;;;;;;;6.77;100.00;96565.63;15286818;19;20093;-51
2024/02/23 11:01:43;;;;;;;1.40;0.50;;;;;;;6.76;100.00;96564.78;15289199;19;20029;-47
2024/02/23 11:07:17;;;;;;;1.65;0.57;;;;;;;6.86;100.00;96547.66;15286940;19;20090;-49
2024/02/23 11:12:43;;;;;;;2.00;0.55;;;;;;;6.90;100.00;96563.16;15287969;19;20018;-51
2024/02/23 11:18:24;;;;;;;1.90;0.60;;;;;;;6.92;100.00;96554.94;15285823;19;20367;-48
2024/02/23 11:23:57;;;;;;;3.33;0.70;;;;;;;6.95;100.00;96549.22;15285526;19;20669;-48
2024/02/23 11:29:22;;;;;;;2.28;0.77;;;;;;;7.04;100.00;96540.06;15287153;19;20019;-48
2024/02/23 11:34:48;;;;;;;1.75;0.52;;;;;;;7.11;100.00;96542.00;15287883;19;20370;-49
2024/02/23 11:40:17;;;;;;;0.98;0.43;;;;;;;7.19;100.00;96536.56;15288478;19;20015;-49
2024/02/23 11:45:41;;;;;;;1.60;0.68;;;;;;;7.25;100.00;96546.50;15282129;19;20090;-47
2024/02/23 11:51:07;;;;;;;4.00;0.80;;;;;;;7.19;100.00;96553.44;15279963;19;20025;-51
2024/02/23 11:56:34;;;;;;;3.80;0.65;;;;;;;7.24;100.00;96534.13;15281899;19;20020;-50
2024/02/23 12:02:00;;;;;;;1.75;0.70;;;;;;;7.35;100.00;96532.81;15286927;19;20025;-48
2024/02/23 12:07:26;;;;;;;1.60;0.68;;;;;;;7.39;100.00;96526.91;15287544;19;20017;-48
2024/02/23 12:12:54;;;;;;;1.70;0.70;;;;;;;7.44;100.00;96536.25;15258679;19;20545;-47
2024/02/23 12:18:20;;;;;;;3.15;0.85;;;;;;;7.45;100.00;96535.22;15284861;19;20477;-48
2024/02/23 12:23:46;;;;;;;4.68;0.60;;;;;;;7.38;100.00;96535.97;15277930;19;20021;-51
2024/02/23 12:29:14;;;;;;;1.75;0.70;;;;;;;7.42;100.00;96531.06;15284055;19;20101;-48
2024/02/23 12:34:45;;;;;;;2.20;0.60;;;;;;;7.39;100.00;96537.63;15285471;19;20098;-48
2024/02/23 12:40:11;;;;;;;2.43;0.50;;;;;;;7.36;100.00;96534.50;15284218;19;20462;-49
2024/02/23 12:45:38;;;;;;;2.70;0.60;;;;;;;7.39;100.00;96537.63;15286433;19;20262;-48
2024/02/23 12:51:03;;;;;;;1.45;0.50;;;;;;;7.43;100.00;96532.72;15283820;19;20014;-51
2024/02/23 12:56:27;;;;;;;2.20;0.70;;;;;;;7.40;100.00;96550.00;15280707;19;20022;-47
2024/02/23 13:01:55;;;;;;;3.35;0.63;;;;;;;7.34;100.00;96550.75;15282163;19;20560;-48
2024/02/23 13:07:19;;;;;;;2.15;0.80;;;;;;;7.36;100.00;96537.16;15284087;19;20038;-47
2024/02/23 13:12:49;;;;;;;1.63;0.55;;;;;;;7.33;100.00;96524.16;15280423;19;20337;-47
2024/02/23 13:18:16;;;;;;;0.88;0.40;;;;;;;7.32;100.00;96536.72;15283583;19;20019;-48
2024/02/23 13:23:43;;;;;;;2.50;0.60;;;;;;;7.32;100.00;96542.09;15277841;19;20415;-50
2024/02/23 13:29:15;;;;;;;4.13;0.50;;;;;;;7.31;100.00;96540.41;15283515;19;20011;-50
2024/02/23 13:34:52;;;;;;;1.08;0.40;;;;;;;7.29;100.00;96534.41;15296015;19;20033;-51
2024/02/23 13:40:17;;;;;;;2.30;0.80;;;;;;;7.30;100.00;96537.91;15292511;19;20429;-51
2024/02/23 13:45:41;;;;;;;0.85;0.50;;;;;;;7.25;100.00;96551.88;15297451;19;20022;-48
2024/02/23 13:51:09;;;;;;;1.05;0.57;;;;;;;7.19;100.00;96547.25;15293803;19;20086;-46
2024/02/23 13:56:33;;;;;;;1.75;0.73;;;;;;;7.26;100.00;96548.16;15291407;19;20734;-47
2024/02/23 14:01:58;;;;;;;2.83;0.68;;;;;;;7.22;100.00;96549.56;15291491;19;20025;-50
2024/02/23 14:07:25;;;;;;;2.22;0.70;;;;;;;7.19;100.00;96547.25;15295859;19;20058;-53
2024/02/23 14:12:51;;;;;;;1.25;0.55;;;;;;;7.16;100.00;96552.97;15290140;19;20029;-50
2024/02/23 14:18:15;;;;;;;0.90;0.50;;;;;;;7.14;100.00;96565.72;15292203;19;20006;-50
2024/02/23 14:23:43;;;;;;;1.80;0.63;;;;;;;7.12;100.00;96568.59;15292410;19;20468;-49
2024/02/23 14:29:09;;;;;;;1.58;0.60;;;;;;;7.15;100.00;96572.75;15288848;19;20362;-48
2024/02/23 14:34:39;;;;;;;1.15;0.60;;;;;;;7.18;100.00;96583.09;15286518;19;20078;-47
2024/02/23 14:40:08;;;;;;;2.80;0.73;;;;;;;7.18;100.00;96580.41;15289725;19;20014;-50
2024/02/23 14:45:32;;;;;;;1.45;0.60;;;;;;;7.14;100.00;96571.06;15294238;19;20392;-51
2024/02/23 14:50:57;;;;;;;1.63;0.70;;;;;;;7.11;100.00;96584.84;15288774;19;20216;-46
2024/02/23 14:56:25;;;;;;;3.17;0.70;;;;;;;7.08;100.00;96586.03;15292849;19;20357;-47
2024/02/23 15:01:50;;;;;;;3.00;0.73;;;;;;;7.07;100.00;96579.00;15283550;19;20022;-49
2024/02/23 15:07:16;;;;;;;2.47;0.70;;;;;;;7.02;100.00;96571.53;15290218;19;20041;-48
2024/02/23 15:12:45;;;;;;;3.00;0.50;;;;;;;6.97;100.00;96560.56;15291587;19;20094;-47
2024/02/23 15:18:09;;;;;;;3.75;0.75;;;;;;;6.94;100.00;96555.56;15291587;19;20049;-49
2024/02/23 15:23:34;;;;;;;3.03;0.70;;;;;;;6.95;100.00;96551.88;15287312;19;20024;-47
2024/02/23 15:29:03;;;;;;;1.20;0.60;;;;;;;6.92;100.00;96522.81;15288704;19;20034;-47
2024/02/23 15:34:35;;;;;;;2.53;0.80;;;;;;;6.83;100.00;96522.06;15281457;19;20101;-47
2024/02/23 15:39:59;;;;;;;3.20;0.70;;;;;;;6.77;100.00;96539.69;15286658;19;20014;-50
2024/02/23 15:45:27;;;;;;;3.05;0.90;;;;;;;6.77;100.00;96568.31;15287054;19;20082;-47
2024/02/23 15:50:51;;;;;;;2.85;0.80;;;;;;;6.72;100.00;96584.91;15285655;19;20452;-48
2024/02/23 15:56:29;;;;;;;2.55;1.15;;;;;;;6.69;100.00;96579.09;15288692;19;20021;-48
2024/02/23 16:01:58;;;;;;;2.80;1.33;;;;;;;6.68;100.00;96572.09;15276888;19;20038;-48
2024/02/23 16:07:23;;;;;;;2.90;1.40;;;;;;;6.64;100.00;96582.31;15278436;19;20019;-47
2024/02/23 16:12:48;;;;;;;3.13;1.45;;;;;;;6.60;100.00;96610.44;15284630;19;20020;-47
2024/02/23 16:18:16;;;;;;;2.80;1.20;;;;;;;6.59;100.00;96604.25;15284876;19;20045;-47
2024/02/23 16:23:40;;;;;;;2.65;1.00;;;;;;;6.65;100.00;96600.00;15283144;19;20017;-48
2024/02/23 16:29:13;;;;;;;2.83;1.33;;;;;;;6.68;100.00;96588.97;15281462;19;20019;-83
2024/02/23 16:34:40;;;;;;;2.80;1.10;;;;;;;6.64;100.00;96571.63;15289781;19;20082;-82
2024/02/23 16:40:05;;;;;;;2.53;1.00;;;;;;;6.47;100.00;96554.88;15291426;19;20374;-82
2024/02/23 16:45:30;;;;;;;1.50;0.70;;;;;;;6.30;100.00;96562.22;15284299;19;20082;-82
2024/02/23 16:50:59;;;;;;;1.75;0.70;;;;;;;6.15;100.00;96586.22;15300039;19;20011;-82
2024/02/23 16:56:25;;;;;;;2.28;0.70;;;;;;;5.99;100.00;96587.16;15290120;19;20014;-83
2024/02/23 17:01:50;;;;;;;3.15;0.75;;;;;;;5.85;100.00;96583.41;15290447;19;20475;-83
2024/02/23 17:07:19;;;;;;;2.00;0.63;;;;;;;5.71;100.00;96601.00;15302651;19;20035;-83
2024/02/23 17:12:45;;;;;;;2.00;0.70;;;;;;;5.61;100.00;96595.06;15294846;19;20006;-82
2024/02/23 17:18:10;;;;;;;1.90;0.80;;;;;;;5.50;100.00;96590.94;15302113;19;20024;-82
2024/02/23 17:23:38;;;;;;;1.88;0.80;;;;;;;5.40;100.00;96591.16;15302512;19;20022;-84
2024/02/23 17:29:10;;;;;;;2.50;0.70;;;;;;;5.34;100.00;96592.69;15311871;19;20031;-83
2024/02/23 17:34:35;;;;;;;1.92;0.80;;;;;;;5.28;100.00;96598.72;15273738;19;20062;-83
2024/02/23 17:40:04;;;;;;;1.95;0.60;;;;;;;5.21;100.00;96597.72;15305524;19;20029;-83
2024/02/23 17:45:28;;;;;;;1.15;0.70;;;;;;;5.13;100.00;96603.94;15296060;19;20014;-84
2024/02/23 17:50:53;;;;;;;1.15;0.60;;;;;;;5.07;100.00;96607.31;15303954;19;20481;-83
2024/02/23 17:56:20;;;;;;;1.73;0.80;;;;;;;4.99;100.00;96608.16;15043849;19;5001700;-83
2024/02/23 18:01:45;;;;;;;3.70;0.80;;;;;;;4.91;100.00;96606.31;15297622;19;20110;-83
2024/02/23 18:07:10;;;;;;;1.30;0.50;;;;;;;4.83;100.00;96605.50;15300996;19;20049;-83
2024/02/23 18:12:38;;;;;;;1.30;0.70;;;;;;;4.77;100.00;96599.88;15304132;19;20022;-83
2024/02/23 18:18:02;;;;;;;1.77;0.75;;;;;;;4.71;100.00;96613.88;15300238;19;20023;-83
2024/02/23 18:23:30;;;;;;;3.50;0.80;;;;;;;4.68;100.00;96616.88;15298422;19;20045;-84
2024/02/23 18:29:04;;;;;;;5.68;1.10;;;;;;;4.62;100.00;96609.53;15306402;19;20470;-83
2024/02/23 18:34:30;;;;;;;2.17;0.90;;;;;;;4.58;100.00;96593.06;15300988;19;20352;-85
2024/02/23 18:40:05;;;;;;;3.92;2.33;;;;;;;4.55;100.00;96611.22;15310216;19;20015;-83
2024/02/23 18:45:34;;;;;;;3.88;1.40;;;;;;;4.47;100.00;96607.56;15308182;19;20033;-83
2024/02/23 18:50:59;;;;;;;1.77;1.00;;;;;;;4.43;100.00;96610.72;15307285;19;20014;-84
2024/02/23 18:56:30;;;;;;;2.72;1.30;;;;;;;4.37;100.00;96620.22;15305185;19;20018;-82
2024/02/23 19:01:55;;;;;;;2.75;1.00;;;;;;;4.32;100.00;96612.72;15307967;19;20022;-86
2024/02/23 19:07:22;;;;;;;3.13;1.17;;;;;;;4.28;100.00;96590.09;15309390;19;20015;-83
2024/02/23 19:12:48;;;;;;;2.42;1.20;;;;;;;4.20;100.00;96590.06;15309080;19;20350;-83
2024/02/23 19:18:19;;;;;;;3.33;0.95;;;;;;;4.13;100.00;96591.75;15308810;19;20027;-83
2024/02/23 19:23:51;;;;;;;2.97;1.13;;;;;;;4.08;100.00;96586.91;15304266;19;20021;-83
2024/02/23 19:29:23;;;;;;;4.03;1.50;;;;;;;4.05;100.00;96579.25;15306936;19;20018;-83
2024/02/23 19:34:54;;;;;;;3.10;1.20;;;;;;;3.99;100.00;96610.06;15307257;19;20017;-83
2024/02/23 19:40:21;;;;;;;4.43;1.30;;;;;;;3.95;100.00;96630.00;15308782;19;20346;-83
2024/02/23 19:45:47;;;;;;;3.72;1.17;;;;;;;3.88;100.00;96626.34;15305692;19;20024;-83
2024/02/23 19:51:30;;;;;;;3.63;0.90;;;;;;;3.87;100.00;96638.00;15303129;19;20014;-83
2024/02/23 19:56:57;;;;;;;2.50;1.17;;;;;;;3.83;100.00;96641.97;15300785;19;20006;-83
2024/02/23 20:02:23;;;;;;;2.63;1.10;;;;;;;3.81;100.00;96636.00;15298044;19;20042;-84
2024/02/23 20:07:50;;;;;;;2.90;1.20;;;;;;;3.74;100.00;96627.81;15299010;19;20463;-83
2024/02/23 20:13:16;;;;;;;2.40;1.00;;;;;;;3.73;100.00;96614.66;15300006;19;20013;-84
2024/02/23 20:18:42;;;;;;;1.45;1.08;;;;;;;3.67;100.00;96630.31;15295746;19;20014;-84
2024/02/23 20:24:10;;;;;;;2.08;1.02;;;;;;;3.64;100.00;96627.13;15291701;19;20086;-84
2024/02/23 20:29:34;;;;;;;1.60;0.82;;;;;;;3.60;100.00;96634.59;15294971;19;20019;-83
2024/02/23 20:35:06;;;;;;;2.15;0.90;;;;;;;3.62;100.00;96650.41;15298499;19;20014;-87
2024/02/23 20:40:35;;;;;;;2.10;0.90;;;;;;;3.67;100.00;96654.28;15318186;19;20035;-84
2024/02/23 20:46:01;;;;;;;3.97;1.00;;;;;;;3.72;100.00;96660.91;15314178;19;20039;-84
2024/02/23 20:51:26;;;;;;;2.00;0.77;;;;;;;3.73;100.00;96657.25;15318263;19;20042;-84
2024/02/23 20:56:54;;;;;;;2.00;1.00;;;;;;;3.75;100.00;96653.47;15313063;19;20481;-84
2024/02/23 21:02:21;;;;;;;1.98;0.90;;;;;;;3.83;100.00;96657.94;15319036;19;20011;-85
2024/02/23 21:07:47;;;;;;;1.85;0.93;;;;;;;3.86;100.00;96641.66;15310143;19;20436;-84
2024/02/23 21:13:14;;;;;;;2.05;0.82;;;;;;;3.84;100.00;96641.84;15319050;19;20022;-83
2024/02/23 21:18:44;;;;;;;1.67;0.93;;;;;;;3.78;100.00;96639.78;15319691;19;20010;-83
2024/02/23 21:24:11;;;;;;;1.55;0.90;;;;;;;3.72;100.00;96656.44;15317494;19;20032;-83
2024/02/23 21:29:43;;;;;;;1.63;0.90;;;;;;;3.66;100.00;96662.41;15311968;19;20010;-82
2024/02/23 21:35:11;;;;;;;2.40;0.80;;;;;;;3.61;100.00;96654.06;15316150;19;20015;-85
2024/02/23 21:40:38;;;;;;;1.73;0.90;;;;;;;3.54;100.00;96656.53;15314086;19;20039;-83
2024/02/23 21:46:06;;;;;;;1.75;0.90;;;;;;;3.50;100.00;96655.19;15309345;19;20029;-86
2024/02/23 21:51:34;;;;;;;2.47;1.10;;;;;;;3.47;100.00;96660.84;15312216;19;20026;-81
2024/02/23 21:57:00;;;;;;;1.42;0.93;;;;;;;3.40;100.00;96663.31;15312804;19;20026;-88
2024/02/23 22:02:34;;;;;;;2.72;1.10;;;;;;;3.35;100.00;96666.44;15312749;19;20029;-83
2024/02/23 22:07:58;;;;;;;2.50;0.93;;;;;;;3.32;100.00;96648.16;15308875;19;20031;-85
2024/02/23 22:13:34;;;;;;;1.77;1.05;;;;;;;3.26;100.00;96634.63;15314738;19;20010;-83
2024/02/23 22:19:03;;;;;;;1.27;0.90;;;;;;;3.18;100.00;96638.09;15308337;19;20078;-84
2024/02/23 22:24:37;;;;;;;2.42;1.08;;;;;;;3.12;100.00;96634.22;15312253;19;20027;-81
2024/02/23 22:30:08;;;;;;;2.22;1.02;;;;;;;3.08;100.00;96632.88;15311525;19;20386;-85
2024/02/23 22:35:37;;;;;;;2.22;0.95;;;;;;;3.02;100.00;96639.66;15305606;19;20007;-85
2024/02/23 22:41:02;;;;;;;1.95;0.90;;;;;;;3.01;100.00;96632.66;15307077;19;20018;-81
2024/02/23 22:46:30;;;;;;;1.75;0.93;;;;;;;2.97;100.00;96634.00;15306043;19;20011;-83
2024/02/23 22:51:53;;;;;;;2.50;1.00;;;;;;;2.95;100.00;96624.47;15302291;19;20026;-82
2024/02/23 22:57:20;;;;;;;1.75;0.90;;;;;;;2.95;100.00;96628.00;15305039;19;20285;-83
2024/02/23 23:02:52;;;;;;;2.22;0.90;;;;;;;2.92;100.00;96633.63;15312815;19;20455;-82
2024/02/23 23:08:24;;;;;;;1.75;0.90;;;;;;;2.91;100.00;96637.28;15304814;19;20030;-83
2024/02/23 23:13:49;;;;;;;3.88;0.93;;;;;;;2.88;100.00;96654.38;15307674;19;20093;-83
2024/02/23 23:19:16;;;;;;;2.13;0.80;;;;;;;2.87;100.00;96651.91;15292675;19;20018;-84
2024/02/23 23:24:43;;;;;;;2.13;0.90;;;;;;;2.87;100.00;96659.88;15296240;19;20034;-84
2024/02/23 23:30:09;;;;;;;2.83;0.90;;;;;;;2.93;100.00;96675.19;15295841;19;20082;-84
2024/02/23 23:35:34;;;;;;;2.78;0.90;;;;;;;2.97;100.00;96663.25;15297448;19;20032;-86
2024/02/23 23:41:01;;;;;;;1.92;0.88;;;;;;;2.95;100.00;96670.56;15298462;19;20014;-86
2024/02/23 23:46:26;;;;;;;3.63;1.02;;;;;;;2.94;100.00;96668.88;15286598;19;20090;-84
2024/02/23 23:51:50;;;;;;;5.00;1.00;;;;;;;2.97;100.00;96673.91;15296713;19;20667;-84
2024/02/23 23:57:24;;;;;;;2.05;1.10;;;;;;;2.97;100.00;96676.56;15289902;19;20335;-85
